Historyczne dane pomiarowe

Dodano dane terminowe – wersja testowa.

Dane z okresu 1951-2019

Wersja bazy: 1.34 [2019-03-16, lista zmian], aktualizacja planowana na 2019-04-15

Dane meteo z obszaru Polski uzyskane na podstawie danych udostępnionych przez Instytut Meteorologii i Gospodarki Wodnej – Państwowy Instytut Badawczy.

 

Wybierz Datę:    

       

TemperaturaWilgotnośćWiatrCiśnienieOpadyŚniegCzas trwania zjawisk
 Stacja t tx tn tng RH VA  wxwx mslp ppp RRR   cm mm wxwxwxwxwxwxwx
1956-11-09 -5.7 -2.9 -9.3-13.4 74.3- 6.3 1.7---- 0.0------------
1956-11-08 -4.9 -1.3 -7.2 -9.9 71.3- 1.7 3.3---- 0.0------------
1956-11-07 -1.9 1.1 -4.0 -3.3 72.0- 4.0 7.7---- 0.0------------
1956-11-06 0.6 3.7 -0.3 -2.1 76.5- 4.0 6.7---- 0.0------------
1956-11-05 1.5 4.7 -3.1 -5.5 83.5- 6.7 5.3---- 1.3------------
1956-11-04 -0.8 2.6 -2.7 -6.0 83.8- 3.7 3.7---- 0.0------------
1956-11-03 -0.9 2.0 -3.7 -7.8 88.5- 7.0 2.0---- 0.0------------
1956-11-02 -0.7 3.1 -2.6 -1.8 90.3- 2.7 1.7---- 0.0-- 2---------
1956-11-01 -0.8 1.0 -6.0 -8.5 63.5- 7.0 5.7---- 1.4------------
1956-10-31 -5.7 -1.7 -8.4 -8.8 75.3- 0.3 3.7---- 0.0------------
1956-10-30 -1.6 4.4 -3.2- 90.5- 8.0 5.0---- 0.3------------
1956-10-29 4.4 8.4 3.1 -1.3 96.0- 6.7 2.3---- 0.4------------
1956-10-28 8.3 9.9 8.0 7.2 98.0- 8.0 4.0---- 10.1------------
1956-10-27 8.4 10.9 5.7 6.3 93.0- 7.7 4.0---- 5.0------------
1956-10-26 8.4 13.5 3.1 0.2 93.8- 6.7 0.7---- 0.0------------
1956-10-25 10.7 15.6 7.3 5.2 81.8- 1.0 4.3---- 0.0------------
1956-10-24 10.3 12.6 5.2 7.2 89.5- 6.3 4.7---- 0.0------------
1956-10-23 9.3 11.2 8.4 9.1 81.8- 8.0 4.0---- 0.0------------
1956-10-22 10.7 12.7 9.6 8.1 88.5- 8.0 5.7---- 0.0------------
1956-10-21 11.3 14.2 6.5 2.9 91.3- 5.7 3.0---- 0.0------------
1956-10-20 8.3 11.9 5.2 1.8 92.5- 7.7 1.7---- 0.0------------
1956-10-19 8.5 12.3 6.3 8.2 95.8- 7.7 4.3---- 2.0------------
1956-10-18 8.0 11.1 1.8 -0.4 88.3- 7.7 3.0---- 0.2------------
1956-10-17 4.3 11.2 -1.1 -4.1 87.8- 3.0 1.7---- 0.0------------
1956-10-16 3.3 9.1 0.0 -3.8 87.8- 5.0 1.7---- 0.0------------
1956-10-15 4.5 11.0 1.8 0.0 87.0- 2.0 2.7---- 0.0------------
1956-10-14 6.9 10.5 4.7 4.9 78.3- 5.7 7.7---- 0.0------------
1956-10-13 9.6 12.1 6.9 5.2 80.8- 7.7 12.0---- 8.7------------
1956-10-12 8.9 11.4 7.8 7.0 89.0- 6.3 4.7---- 0.0------------
1956-10-11 7.7 10.2 2.3 1.0 82.5- 7.7 5.7---- 0.0------------
1956-10-10 2.7 7.7 -0.9 -3.1 85.0- 4.7 3.0---- 0.0------------
1956-10-09 6.2 9.4 1.2 -1.2 88.5- 5.0 3.3---- 1.0------------
1956-10-08 4.4 8.2 3.3 3.0 93.8- 5.7 3.3---- 0.4------------
1956-10-07 6.4 9.9 3.5 2.9 88.0- 8.0 12.7---- 8.2------------
1956-10-06 9.0 9.7 7.1 4.5 96.3- 8.0 2.7---- 43.4------------
1956-10-05 9.8 14.9 8.5 5.6 89.5- 4.7 2.7---- 1.4------------
1956-10-04 8.9 11.4 4.4 0.7 94.0- 7.7 1.0---- 0.4------------
1956-10-03 14.2 19.2 10.8 9.3 77.5- 5.0 5.0---- 0.0------------
1956-10-02 16.5 24.2 8.9 4.7 80.5- 2.0 4.0---- 0.0------------
1956-10-01 14.2 21.0 3.9 -0.4 83.0- 3.0 2.3---- 0.0------------
1956-09-30 9.9 16.4 7.2 5.1 93.8- 3.3 2.7---- 0.0------------
1956-09-29 16.5 20.5 11.8 9.3 80.5- 6.7 5.0---- 0.2------------
1956-09-28 14.3 19.8 10.2 4.9 85.8- 4.3 3.3---- 0.0------------
1956-09-27 14.1 21.8 5.7 1.0 67.8- 2.7 2.7---- 0.0------------
1956-09-26 11.5 20.2 3.5 -0.8 80.3- 0.0 1.0---- 0.0------------
1956-09-25 9.4 17.6 0.9 -3.8 76.8- 2.7 2.0---- 0.0------------
1956-09-24 5.6 13.8 0.6 -2.9 80.5- 0.3 2.0---- 0.0------------
1956-09-23 8.5 14.9 2.3 0.1 78.8- 2.7 3.3---- 0.0------------
1956-09-22 9.5 18.0 2.3 -0.9 86.3- 1.7 1.0---- 0.0------------
1956-09-21 9.1 17.4 4.0 0.0 84.3- 0.0 0.7---- 0.0------------
1956-09-20 9.9 16.6 3.2 -0.8 79.8- 6.0 1.7---- 0.0------------
1956-09-19 8.0 15.4 1.3 -1.2 84.8- 2.0 1.0---- 0.0------------
1956-09-18 7.0 12.3 5.0 1.3 85.3- 4.7 3.0---- 0.0------------
1956-09-17 7.6 13.7 5.5 2.3 82.0- 3.7 3.7---- 0.8------------
1956-09-16 9.9 12.7 4.5 -0.1 82.3- 6.3 7.0---- 0.0------------
1956-09-15 9.9 14.1 3.9 0.8 87.0- 5.3 4.3---- 0.0------------
1956-09-14 8.5 14.5 6.3 3.1 82.8- 3.3 3.3---- 0.0------------
1956-09-13 8.8 13.8 6.6 4.3 89.5- 5.3 4.7---- 2.4------------
1956-09-12 10.9 13.8 9.0 5.2 93.5- 6.0 4.0---- 8.4------------
1956-09-11 12.5 13.6 11.9 9.5 96.8- 8.0 2.0---- 8.8------------
193.2 ms

 

Źródłem pochodzenia danych jest Instytut Meteorologii i Gospodarki Wodnej – Państwowy Instytut Badawczy. Dane Instytutu Meteorologii i Gospodarki Wodnej – Państwowego Instytutu Badawczego zostały przetworzone.

Dane źródłowe można odnaleźć na stronie https://dane.imgw.pl